createdAt,value
2022-12-06T00:01:30.684Z,91.52
2022-12-06T00:04:01.133Z,91.51
2022-12-06T00:06:32.888Z,91.31
2022-12-06T00:09:00.576Z,91.28
2022-12-06T00:11:44.957Z,90.91
2022-12-06T00:14:15.702Z,91.29
2022-12-06T00:16:42.614Z,91.48
2022-12-06T00:19:12.857Z,92.37
2022-12-06T00:21:41.221Z,92.67
2022-12-06T00:24:11.480Z,93.07
2022-12-06T00:26:41.863Z,93.90
2022-12-06T00:29:13.387Z,93.84
2022-12-06T00:31:40.773Z,93.75
2022-12-06T00:34:08.059Z,93.50
2022-12-06T00:36:39.371Z,93.43
2022-12-06T00:39:11.343Z,92.92
2022-12-06T00:41:39.024Z,92.67
2022-12-06T00:44:06.761Z,92.43
2022-12-06T00:46:35.457Z,91.61
2022-12-06T00:49:05.701Z,90.84
2022-12-06T00:51:34.685Z,90.37
2022-12-06T00:54:01.898Z,90.64
2022-12-06T00:56:30.815Z,90.39
2022-12-06T00:58:58.013Z,90.48
2022-12-06T01:01:27.535Z,91.60
2022-12-06T01:03:58.189Z,91.72
2022-12-06T01:06:29.225Z,92.48
2022-12-06T01:08:59.216Z,92.55
2022-12-06T01:11:27.858Z,91.70
2022-12-06T01:13:56.826Z,91.80
2022-12-06T01:16:28.190Z,91.61
2022-12-06T01:18:58.412Z,91.92
2022-12-06T01:21:27.259Z,91.63
2022-12-06T01:23:54.352Z,90.93
2022-12-06T01:26:24.909Z,90.71
2022-12-06T01:28:52.207Z,91.95
2022-12-06T01:31:21.252Z,91.91
2022-12-06T01:33:48.433Z,91.61
2022-12-06T01:36:20.340Z,91.80
2022-12-06T01:38:50.768Z,92.31
2022-12-06T01:41:18.438Z,91.96
2022-12-06T01:43:47.076Z,91.73
2022-12-06T01:46:28.357Z,90.94
2022-12-06T01:49:08.229Z,91.20
2022-12-06T01:51:36.584Z,91.45
2022-12-06T01:54:10.296Z,90.41
2022-12-06T01:56:38.863Z,90.42
2022-12-06T01:59:08.020Z,89.96
2022-12-06T02:01:39.179Z,89.91
2022-12-06T02:04:07.387Z,89.47
2022-12-06T02:06:34.652Z,89.63
2022-12-06T02:09:06.061Z,89.48
2022-12-06T02:11:35.704Z,89.38
2022-12-06T02:14:09.532Z,89.73
2022-12-06T02:17:04.810Z,91.53
2022-12-06T02:20:18.908Z,92.39
2022-12-06T02:23:35.137Z,92.69
2022-12-06T02:26:37.662Z,92.74
2022-12-06T02:29:46.104Z,92.57
2022-12-06T02:32:24.112Z,93.24
2022-12-06T02:34:59.469Z,93.36
2022-12-06T02:37:34.264Z,93.19
2022-12-06T02:40:07.943Z,93.13
2022-12-06T02:42:44.493Z,93.12
2022-12-06T02:45:19.034Z,92.08
2022-12-06T02:47:51.902Z,92.28
2022-12-06T02:50:25.196Z,91.91
2022-12-06T02:52:58.289Z,91.30
2022-12-06T02:55:26.602Z,91.55
2022-12-06T02:57:54.758Z,91.09
2022-12-06T03:00:37.164Z,90.85
2022-12-06T03:03:53.151Z,89.47
2022-12-06T03:06:51.146Z,89.21
2022-12-06T03:09:36.492Z,89.21
2022-12-06T03:12:12.254Z,88.85
2022-12-06T03:14:51.022Z,88.67
2022-12-06T03:17:34.730Z,88.49
2022-12-06T03:20:11.960Z,88.27
2022-12-06T03:22:46.405Z,88.43
2022-12-06T03:25:14.866Z,89.16
2022-12-06T03:27:44.964Z,89.33
2022-12-06T03:30:15.899Z,89.54
2022-12-06T03:32:48.858Z,89.61
2022-12-06T03:35:25.724Z,89.00
2022-12-06T03:38:04.587Z,89.83
2022-12-06T03:40:36.948Z,89.59
2022-12-06T03:43:05.243Z,89.79
2022-12-06T03:45:40.332Z,89.66
2022-12-06T03:48:12.772Z,88.55
2022-12-06T03:50:47.593Z,87.96
2022-12-06T03:53:17.420Z,88.87
2022-12-06T03:55:44.462Z,89.01
2022-12-06T03:58:11.757Z,88.65
2022-12-06T04:00:39.049Z,88.58
2022-12-06T04:03:05.973Z,88.01
2022-12-06T04:05:32.917Z,87.92
2022-12-06T04:08:01.111Z,86.95
2022-12-06T04:10:28.130Z,87.49
2022-12-06T04:12:54.918Z,87.33
2022-12-06T04:15:23.254Z,87.61
2022-12-06T04:17:50.239Z,88.35
2022-12-06T04:20:17.433Z,88.44
2022-12-06T04:22:44.180Z,88.36
2022-12-06T04:25:12.251Z,88.20
2022-12-06T04:27:39.421Z,88.90
2022-12-06T04:30:09.275Z,89.01
2022-12-06T04:32:36.027Z,89.26
2022-12-06T04:35:02.958Z,89.80
2022-12-06T04:37:30.068Z,89.64
2022-12-06T04:39:56.793Z,89.25
2022-12-06T04:42:25.203Z,89.22
2022-12-06T04:44:52.032Z,89.37
2022-12-06T04:47:19.502Z,89.38
2022-12-06T04:49:46.545Z,89.35
2022-12-06T04:52:14.259Z,89.39
2022-12-06T04:54:42.005Z,89.49
2022-12-06T04:57:11.992Z,89.50
2022-12-06T04:59:43.138Z,89.33
2022-12-06T05:02:14.755Z,88.96
2022-12-06T05:04:42.032Z,89.15
2022-12-06T05:07:09.656Z,89.21
2022-12-06T05:09:36.652Z,88.51
2022-12-06T05:12:03.805Z,88.33
2022-12-06T05:14:30.913Z,88.97
2022-12-06T05:16:59.983Z,89.28
2022-12-06T05:19:27.005Z,89.83
2022-12-06T05:21:53.959Z,89.83
2022-12-06T05:24:20.825Z,89.92
2022-12-06T05:26:47.565Z,89.71
2022-12-06T05:29:14.548Z,89.15
2022-12-06T05:31:41.490Z,89.12
2022-12-06T05:34:10.791Z,89.11
2022-12-06T05:36:37.768Z,89.25
2022-12-06T05:39:04.549Z,88.87
2022-12-06T05:41:31.849Z,88.61
2022-12-06T05:43:58.581Z,88.28
2022-12-06T05:46:25.508Z,88.07
2022-12-06T05:48:52.337Z,88.37
2022-12-06T05:51:20.500Z,88.72
2022-12-06T05:53:47.236Z,89.22
2022-12-06T05:56:14.085Z,89.79
2022-12-06T05:58:41.057Z,89.46
2022-12-06T06:01:09.798Z,89.79
2022-12-06T06:03:42.232Z,89.99
2022-12-06T06:06:12.486Z,90.22
2022-12-06T06:08:40.747Z,90.01
2022-12-06T06:11:07.817Z,89.56
2022-12-06T06:13:34.741Z,89.80
2022-12-06T06:16:01.537Z,89.75
2022-12-06T06:18:28.710Z,89.27
2022-12-06T06:20:59.136Z,90.31
2022-12-06T06:23:29.589Z,90.34
2022-12-06T06:25:57.740Z,90.30
2022-12-06T06:28:24.661Z,89.20
2022-12-06T06:30:51.611Z,89.42
2022-12-06T06:33:18.775Z,89.11
2022-12-06T06:35:45.480Z,88.96
2022-12-06T06:38:12.377Z,88.51
2022-12-06T06:40:39.175Z,88.72
2022-12-06T06:43:07.289Z,88.51
2022-12-06T06:45:34.695Z,90.58
2022-12-06T06:48:01.488Z,89.43
2022-12-06T06:50:28.516Z,88.26
2022-12-06T06:52:55.261Z,87.87
2022-12-06T06:55:22.061Z,87.90
2022-12-06T06:57:48.902Z,88.52
2022-12-06T07:00:19.115Z,88.45
2022-12-06T07:02:46.122Z,88.76
2022-12-06T07:05:13.280Z,88.95
2022-12-06T07:07:40.168Z,88.56
2022-12-06T07:10:08.583Z,88.52
2022-12-06T07:12:35.605Z,89.16
2022-12-06T07:15:02.382Z,89.78
2022-12-06T07:17:31.109Z,90.17
2022-12-06T07:19:58.460Z,89.97
2022-12-06T07:22:25.565Z,89.78
2022-12-06T07:24:52.653Z,89.72
2022-12-06T07:27:19.555Z,89.13
2022-12-06T07:29:46.321Z,89.38
2022-12-06T07:32:13.067Z,89.20
2022-12-06T07:34:41.485Z,89.05
2022-12-06T07:37:08.263Z,88.79
2022-12-06T07:39:35.256Z,88.75
2022-12-06T07:42:02.317Z,88.78
2022-12-06T07:44:41.259Z,88.56
2022-12-06T07:47:08.330Z,88.83
2022-12-06T07:49:35.138Z,88.59
2022-12-06T07:52:03.679Z,88.88
2022-12-06T07:54:30.401Z,87.70
2022-12-06T07:56:57.191Z,87.88
2022-12-06T07:59:25.184Z,87.55
2022-12-06T08:01:53.181Z,87.88
2022-12-06T08:04:21.176Z,87.54
2022-12-06T08:06:48.064Z,87.31
2022-12-06T08:09:16.189Z,87.77
2022-12-06T08:11:43.010Z,87.41
2022-12-06T08:14:10.811Z,86.48
2022-12-06T08:16:37.686Z,86.81
2022-12-06T08:19:04.504Z,86.17
2022-12-06T08:21:31.528Z,86.46
2022-12-06T08:23:58.553Z,85.71
2022-12-06T08:26:26.762Z,85.40
2022-12-06T08:28:53.753Z,86.06
2022-12-06T08:31:23.455Z,85.83
2022-12-06T08:33:51.593Z,85.65
2022-12-06T08:36:24.078Z,86.41
2022-12-06T08:38:52.735Z,86.15
2022-12-06T08:41:20.600Z,86.25
2022-12-06T08:43:48.783Z,85.83
2022-12-06T08:46:17.945Z,86.08
2022-12-06T08:48:44.756Z,86.10
2022-12-06T08:51:11.546Z,85.96
2022-12-06T08:53:38.365Z,86.45
2022-12-06T08:56:05.973Z,86.31
2022-12-06T08:58:32.747Z,86.63
2022-12-06T09:01:01.326Z,86.87
2022-12-06T09:03:29.082Z,86.46
2022-12-06T09:05:55.892Z,85.98
2022-12-06T09:08:22.748Z,86.50
2022-12-06T09:10:49.543Z,86.24
2022-12-06T09:13:16.305Z,86.13
2022-12-06T09:15:43.212Z,85.53
2022-12-06T09:18:11.422Z,86.84
2022-12-06T09:20:39.856Z,85.56
2022-12-06T09:23:06.941Z,85.53
2022-12-06T09:25:33.900Z,85.28
2022-12-06T09:28:00.766Z,86.73
2022-12-06T09:30:28.661Z,86.77
2022-12-06T09:32:55.646Z,84.94
2022-12-06T09:35:25.336Z,84.54
2022-12-06T09:37:53.242Z,84.80
2022-12-06T09:40:32.097Z,84.84
2022-12-06T09:43:22.825Z,85.20
2022-12-06T09:46:24.455Z,84.34
2022-12-06T09:49:28.422Z,84.37
2022-12-06T09:52:19.172Z,84.57
2022-12-06T09:55:05.766Z,84.26
2022-12-06T09:57:44.649Z,84.45
2022-12-06T10:00:26.200Z,84.30
2022-12-06T10:03:26.237Z,84.41
2022-12-06T10:06:00.184Z,84.34
2022-12-06T10:08:51.798Z,84.30
2022-12-06T10:11:41.790Z,84.52
2022-12-06T10:14:28.410Z,84.90
2022-12-06T10:17:08.715Z,84.91
2022-12-06T10:19:57.917Z,84.26
2022-12-06T10:22:41.006Z,84.33
2022-12-06T10:25:18.893Z,83.27
2022-12-06T10:27:58.874Z,83.40
2022-12-06T10:30:26.133Z,83.30
2022-12-06T10:33:00.425Z,82.69
2022-12-06T10:35:54.445Z,83.04
2022-12-06T10:38:32.510Z,83.34
2022-12-06T10:41:12.746Z,83.44
2022-12-06T10:43:54.113Z,83.64
2022-12-06T10:46:31.009Z,83.90
2022-12-06T10:49:08.944Z,84.06
2022-12-06T10:51:43.509Z,83.48
2022-12-06T10:54:25.950Z,83.77
2022-12-06T10:57:00.288Z,83.67
2022-12-06T10:59:37.173Z,82.73
2022-12-06T11:02:24.861Z,83.32
2022-12-06T11:05:00.203Z,82.78
2022-12-06T11:07:37.485Z,83.00
2022-12-06T11:10:19.218Z,82.41
2022-12-06T11:12:54.614Z,82.47
2022-12-06T11:15:26.512Z,82.19
2022-12-06T11:18:04.029Z,82.80
2022-12-06T11:20:39.769Z,81.88
2022-12-06T11:23:19.300Z,82.14
2022-12-06T11:26:12.536Z,82.05
2022-12-06T11:28:43.893Z,82.21
2022-12-06T11:31:25.562Z,82.36
2022-12-06T11:33:53.310Z,82.50
2022-12-06T11:36:21.341Z,82.55
2022-12-06T11:38:48.478Z,82.26
2022-12-06T11:41:23.897Z,82.27
2022-12-06T11:43:55.130Z,82.35
2022-12-06T11:46:24.574Z,81.95
2022-12-06T11:48:52.213Z,81.91
2022-12-06T11:51:22.981Z,82.17
2022-12-06T11:54:00.861Z,81.57
2022-12-06T11:56:31.505Z,81.74
2022-12-06T11:59:21.455Z,81.22
2022-12-06T12:01:51.831Z,80.83
2022-12-06T12:04:39.833Z,80.39
2022-12-06T12:07:16.547Z,80.91
2022-12-06T12:09:52.254Z,81.17
2022-12-06T12:12:23.045Z,81.29
2022-12-06T12:14:58.077Z,80.70
2022-12-06T12:17:31.231Z,81.20
2022-12-06T12:20:04.608Z,80.91
2022-12-06T12:22:37.830Z,81.00
2022-12-06T12:25:24.890Z,81.46
2022-12-06T12:27:54.600Z,81.48
2022-12-06T12:30:32.918Z,81.00
2022-12-06T12:33:21.971Z,81.02
2022-12-06T12:35:54.008Z,81.47
2022-12-06T12:38:28.308Z,81.64
2022-12-06T12:41:00.014Z,81.35
2022-12-06T12:43:31.805Z,81.34
2022-12-06T12:46:15.230Z,81.04
2022-12-06T12:48:46.169Z,81.54
2022-12-06T12:51:32.592Z,81.24
2022-12-06T12:54:03.407Z,81.44
2022-12-06T12:56:35.360Z,81.77
2022-12-06T12:59:16.345Z,81.59
2022-12-06T13:01:51.687Z,82.24
2022-12-06T13:04:33.341Z,82.23
2022-12-06T13:07:05.855Z,81.69
2022-12-06T13:09:46.515Z,81.62
2022-12-06T13:12:23.217Z,81.73
2022-12-06T13:14:58.307Z,82.38
2022-12-06T13:17:31.815Z,81.85
2022-12-06T13:19:58.933Z,81.80
2022-12-06T13:22:30.952Z,81.16
2022-12-06T13:25:07.626Z,81.84
2022-12-06T13:27:42.434Z,81.71
2022-12-06T13:30:18.025Z,81.82
2022-12-06T13:32:53.276Z,82.13
2022-12-06T13:35:28.235Z,81.50
2022-12-06T13:37:58.057Z,81.28
2022-12-06T13:40:49.491Z,80.41
2022-12-06T13:43:56.371Z,81.04
2022-12-06T13:46:31.383Z,80.71
2022-12-06T13:49:03.592Z,80.61
2022-12-06T13:51:46.862Z,80.54
2022-12-06T13:54:40.992Z,80.91
2022-12-06T13:57:30.129Z,81.21
2022-12-06T13:59:57.041Z,81.01
2022-12-06T14:02:51.281Z,81.16
2022-12-06T14:06:07.352Z,81.30
2022-12-06T14:08:42.769Z,81.50
2022-12-06T14:11:18.726Z,81.19
2022-12-06T14:13:48.650Z,81.30
2022-12-06T14:16:29.197Z,81.72
2022-12-06T14:18:56.463Z,81.78
2022-12-06T14:21:30.454Z,81.42
2022-12-06T14:23:57.791Z,81.18
2022-12-06T14:26:28.326Z,81.22
2022-12-06T14:28:58.372Z,81.16
2022-12-06T14:31:30.426Z,81.08
2022-12-06T14:33:57.622Z,81.68
2022-12-06T14:36:29.506Z,81.42
2022-12-06T14:39:06.192Z,81.10
2022-12-06T14:41:37.726Z,81.11
2022-12-06T14:44:14.014Z,81.30
2022-12-06T14:46:42.393Z,82.30
2022-12-06T14:49:18.475Z,81.90
2022-12-06T14:51:46.782Z,81.32
2022-12-06T14:54:19.552Z,81.72
2022-12-06T14:56:47.019Z,81.42
2022-12-06T14:59:38.970Z,81.90
2022-12-06T15:02:23.620Z,81.49
2022-12-06T15:04:51.213Z,81.70
2022-12-06T15:07:41.991Z,81.35
2022-12-06T15:10:24.579Z,81.16
2022-12-06T15:12:52.971Z,81.33
2022-12-06T15:15:39.901Z,81.76
2022-12-06T15:18:23.846Z,81.79
2022-12-06T15:20:52.016Z,80.87
2022-12-06T15:23:36.130Z,81.39
2022-12-06T15:26:06.407Z,81.12
2022-12-06T15:28:34.092Z,81.22
2022-12-06T15:31:01.738Z,81.30
2022-12-06T15:33:29.059Z,81.92
2022-12-06T15:35:55.862Z,81.47
2022-12-06T15:38:22.662Z,81.58
2022-12-06T15:40:53.530Z,81.54
2022-12-06T15:43:29.061Z,81.82
2022-12-06T15:45:58.148Z,81.56
2022-12-06T15:48:25.067Z,81.42
2022-12-06T15:50:51.884Z,81.74
2022-12-06T15:53:22.424Z,81.85
2022-12-06T15:55:52.409Z,82.28
2022-12-06T15:58:23.205Z,82.04
2022-12-06T16:00:50.387Z,81.80
2022-12-06T16:03:17.514Z,81.96
2022-12-06T16:05:44.698Z,82.29
2022-12-06T16:08:11.594Z,82.10
2022-12-06T16:11:10.318Z,82.50
2022-12-06T16:13:27.189Z,82.51
2022-12-06T16:15:54.031Z,82.32
2022-12-06T16:18:20.861Z,81.91
2022-12-06T16:20:48.935Z,82.29
2022-12-06T16:23:18.693Z,82.14
2022-12-06T16:25:46.777Z,82.16
2022-12-06T16:28:14.989Z,81.96
2022-12-06T16:30:44.091Z,81.82
2022-12-06T16:33:17.614Z,81.61
2022-12-06T16:35:45.477Z,81.56
2022-12-06T16:38:14.108Z,81.86
2022-12-06T16:40:45.670Z,82.03
2022-12-06T16:43:13.068Z,81.62
2022-12-06T16:45:44.394Z,81.72
2022-12-06T16:48:16.480Z,81.58
2022-12-06T16:50:45.841Z,82.03
2022-12-06T16:53:13.206Z,81.73
2022-12-06T16:55:40.086Z,81.75
2022-12-06T16:58:07.326Z,81.52
2022-12-06T17:00:34.507Z,81.86
2022-12-06T17:03:02.770Z,82.11
2022-12-06T17:05:29.704Z,81.82
2022-12-06T17:07:56.940Z,81.68
2022-12-06T17:10:23.929Z,82.23
2022-12-06T17:12:50.784Z,82.15
2022-12-06T17:15:20.489Z,81.82
2022-12-06T17:17:48.339Z,82.22
2022-12-06T17:20:18.379Z,81.82
2022-12-06T17:22:45.829Z,82.32
2022-12-06T17:25:14.113Z,81.98
2022-12-06T17:27:41.000Z,82.57
2022-12-06T17:30:14.614Z,82.45
2022-12-06T17:32:41.998Z,82.41
2022-12-06T17:35:08.999Z,82.38
2022-12-06T17:37:37.275Z,82.41
2022-12-06T17:40:05.085Z,82.32
2022-12-06T17:42:32.127Z,82.65
2022-12-06T17:44:58.974Z,82.47
2022-12-06T17:47:26.613Z,82.48
2022-12-06T17:49:53.410Z,82.25
2022-12-06T17:52:20.420Z,82.52
2022-12-06T17:54:48.634Z,82.65
2022-12-06T17:57:17.361Z,83.94
2022-12-06T17:59:46.086Z,86.10
2022-12-06T18:02:16.052Z,85.27
2022-12-06T18:04:43.872Z,84.32
2022-12-06T18:07:11.079Z,84.76
2022-12-06T18:09:38.166Z,83.21
2022-12-06T18:12:08.128Z,83.07
2022-12-06T18:14:35.417Z,83.27
2022-12-06T18:17:02.245Z,82.94
2022-12-06T18:19:29.264Z,82.66
2022-12-06T18:21:56.163Z,82.71
2022-12-06T18:24:25.727Z,82.86
2022-12-06T18:26:54.634Z,82.65
2022-12-06T18:29:24.223Z,82.85
2022-12-06T18:31:52.421Z,82.73
2022-12-06T18:34:20.432Z,83.18
2022-12-06T18:36:47.717Z,83.13
2022-12-06T18:39:18.231Z,82.91
2022-12-06T18:41:46.426Z,82.79
2022-12-06T18:44:13.697Z,83.26
2022-12-06T18:46:42.296Z,83.85
2022-12-06T18:49:12.168Z,84.16
2022-12-06T18:51:39.171Z,84.73
2022-12-06T18:54:07.290Z,85.17
2022-12-06T18:56:35.658Z,85.07
2022-12-06T18:59:06.326Z,84.99
2022-12-06T19:01:36.622Z,84.59
2022-12-06T19:04:07.542Z,84.95
2022-12-06T19:06:37.967Z,84.79
2022-12-06T19:09:08.734Z,85.02
2022-12-06T19:11:36.864Z,85.02
2022-12-06T19:14:04.834Z,84.66
2022-12-06T19:16:36.514Z,84.75
2022-12-06T19:19:14.270Z,84.87
2022-12-06T19:21:43.578Z,84.70
2022-12-06T19:24:12.508Z,84.86
2022-12-06T19:26:39.547Z,84.90
2022-12-06T19:29:06.279Z,84.86
2022-12-06T19:31:33.194Z,84.75
2022-12-06T19:34:00.334Z,84.54
2022-12-06T19:36:31.053Z,84.29
2022-12-06T19:39:00.779Z,83.84
2022-12-06T19:41:28.631Z,84.33
2022-12-06T19:43:55.849Z,84.26
2022-12-06T19:46:26.263Z,84.43
2022-12-06T19:48:55.866Z,84.38
2022-12-06T19:51:23.332Z,83.89
2022-12-06T19:53:51.892Z,84.51
2022-12-06T19:56:18.690Z,85.03
2022-12-06T19:58:46.892Z,84.52
2022-12-06T20:01:17.664Z,84.15
2022-12-06T20:03:44.653Z,84.53
2022-12-06T20:06:18.202Z,83.91
2022-12-06T20:08:47.136Z,83.98
2022-12-06T20:11:18.060Z,84.22
2022-12-06T20:13:44.858Z,84.46
2022-12-06T20:16:12.013Z,84.07
2022-12-06T20:18:38.815Z,84.12
2022-12-06T20:21:06.098Z,84.11
2022-12-06T20:23:32.812Z,84.28
2022-12-06T20:25:59.865Z,83.93
2022-12-06T20:28:28.045Z,84.17
2022-12-06T20:30:55.291Z,83.62
2022-12-06T20:33:22.218Z,84.16
2022-12-06T20:35:49.214Z,84.13
2022-12-06T20:38:15.968Z,84.19
2022-12-06T20:40:42.825Z,84.41
2022-12-06T20:43:10.256Z,84.46
2022-12-06T20:45:38.399Z,84.25
2022-12-06T20:48:05.558Z,84.18
2022-12-06T20:50:32.597Z,83.96
2022-12-06T20:52:59.373Z,84.19
2022-12-06T20:55:26.187Z,84.64
2022-12-06T20:57:53.235Z,84.45
2022-12-06T21:00:21.639Z,84.64
2022-12-06T21:02:50.096Z,84.68
2022-12-06T21:05:18.899Z,85.07
2022-12-06T21:07:46.073Z,84.72
2022-12-06T21:10:12.903Z,84.95
2022-12-06T21:12:39.640Z,85.13
2022-12-06T21:15:07.788Z,85.51
2022-12-06T21:17:34.741Z,84.99
2022-12-06T21:20:03.373Z,85.28
2022-12-06T21:22:30.736Z,85.38
2022-12-06T21:24:57.463Z,86.06
2022-12-06T21:27:24.652Z,86.77
2022-12-06T21:29:51.392Z,86.55
2022-12-06T21:32:18.453Z,86.61
2022-12-06T21:34:46.687Z,86.65
2022-12-06T21:37:15.250Z,86.50
2022-12-06T21:39:42.045Z,86.67
2022-12-06T21:42:08.813Z,86.45
2022-12-06T21:44:36.304Z,86.43
2022-12-06T21:47:03.284Z,85.96
2022-12-06T21:49:29.987Z,85.89
2022-12-06T21:52:01.252Z,85.74
2022-12-06T21:54:34.120Z,85.71
2022-12-06T21:57:00.879Z,86.10
2022-12-06T21:59:27.989Z,85.91
2022-12-06T22:01:54.938Z,86.00
2022-12-06T22:04:22.057Z,86.14
2022-12-06T22:06:48.802Z,86.21
2022-12-06T22:09:15.661Z,86.43
2022-12-06T22:11:44.148Z,86.56
2022-12-06T22:14:11.387Z,85.91
2022-12-06T22:16:41.310Z,86.21
2022-12-06T22:19:08.221Z,86.05
2022-12-06T22:21:35.820Z,86.01
2022-12-06T22:24:02.656Z,85.86
2022-12-06T22:26:31.045Z,85.14
2022-12-06T22:29:00.092Z,85.81
2022-12-06T22:31:29.866Z,85.51
2022-12-06T22:33:57.911Z,86.64
2022-12-06T22:36:25.548Z,84.01
2022-12-06T22:38:54.627Z,82.15
2022-12-06T22:41:22.717Z,81.79
2022-12-06T22:43:51.903Z,82.10
2022-12-06T22:46:22.133Z,81.82
2022-12-06T22:48:49.845Z,81.77
2022-12-06T22:51:19.974Z,81.32
2022-12-06T22:53:51.845Z,81.90
2022-12-06T22:56:19.121Z,82.21
2022-12-06T22:58:45.999Z,81.90
2022-12-06T23:01:17.067Z,81.91
2022-12-06T23:03:47.980Z,81.82
2022-12-06T23:06:17.410Z,81.56
2022-12-06T23:08:45.159Z,81.53
2022-12-06T23:11:16.563Z,81.36
2022-12-06T23:13:43.538Z,81.45
2022-12-06T23:16:14.640Z,81.50
2022-12-06T23:18:42.562Z,81.56
2022-12-06T23:21:14.060Z,81.97
2022-12-06T23:23:44.592Z,82.33
2022-12-06T23:26:14.190Z,82.24
2022-12-06T23:28:41.637Z,83.52
2022-12-06T23:31:13.550Z,84.24
2022-12-06T23:33:41.427Z,84.05
2022-12-06T23:36:13.210Z,83.83
2022-12-06T23:38:40.521Z,83.82
2022-12-06T23:41:11.121Z,84.31
2022-12-06T23:43:39.350Z,84.10
2022-12-06T23:46:08.663Z,85.46
2022-12-06T23:48:36.396Z,85.92
2022-12-06T23:51:07.044Z,85.76
2022-12-06T23:53:35.971Z,85.40
2022-12-06T23:56:07.009Z,85.14
2022-12-06T23:58:34.297Z,85.03
